sensor_id;sensor_type;location;lat;lon;timestamp;P1;durP1;ratioP1;P2;durP2;ratioP2
11016;SDS011;54687;50.800;6.772;2023-04-21T00:01:09;19.75;;;18.00;;
11016;SDS011;54687;50.800;6.772;2023-04-21T00:03:37;17.92;;;16.45;;
11016;SDS011;54687;50.800;6.772;2023-04-21T00:06:04;20.00;;;18.35;;
11016;SDS011;54687;50.800;6.772;2023-04-21T00:08:31;20.08;;;18.38;;
11016;SDS011;54687;50.800;6.772;2023-04-21T00:10:59;20.50;;;18.77;;
11016;SDS011;54687;50.800;6.772;2023-04-21T00:13:26;21.83;;;20.02;;
11016;SDS011;54687;50.800;6.772;2023-04-21T00:15:52;21.83;;;19.98;;
11016;SDS011;54687;50.800;6.772;2023-04-21T00:18:19;21.35;;;19.55;;
11016;SDS011;54687;50.800;6.772;2023-04-21T00:20:45;20.38;;;18.67;;
11016;SDS011;54687;50.800;6.772;2023-04-21T00:23:12;20.92;;;19.02;;
11016;SDS011;54687;50.800;6.772;2023-04-21T00:25:38;21.58;;;19.77;;
11016;SDS011;54687;50.800;6.772;2023-04-21T00:28:06;19.65;;;18.05;;
11016;SDS011;54687;50.800;6.772;2023-04-21T00:30:33;19.63;;;17.98;;
11016;SDS011;54687;50.800;6.772;2023-04-21T00:32:59;19.35;;;17.67;;
11016;SDS011;54687;50.800;6.772;2023-04-21T00:35:26;20.42;;;18.58;;
11016;SDS011;54687;50.800;6.772;2023-04-21T00:37:53;20.17;;;18.38;;
11016;SDS011;54687;50.800;6.772;2023-04-21T00:40:19;21.38;;;19.55;;
11016;SDS011;54687;50.800;6.772;2023-04-21T00:42:46;20.30;;;18.60;;
11016;SDS011;54687;50.800;6.772;2023-04-21T00:45:14;20.38;;;18.65;;
11016;SDS011;54687;50.800;6.772;2023-04-21T00:47:40;20.33;;;18.50;;
11016;SDS011;54687;50.800;6.772;2023-04-21T00:50:07;20.08;;;18.33;;
11016;SDS011;54687;50.800;6.772;2023-04-21T00:52:35;19.80;;;17.90;;
11016;SDS011;54687;50.800;6.772;2023-04-21T00:55:04;20.80;;;18.95;;
11016;SDS011;54687;50.800;6.772;2023-04-21T00:57:32;18.27;;;16.67;;
11016;SDS011;54687;50.800;6.772;2023-04-21T01:00:01;20.17;;;18.48;;
11016;SDS011;54687;50.800;6.772;2023-04-21T01:02:31;19.35;;;17.58;;
11016;SDS011;54687;50.800;6.772;2023-04-21T01:04:58;19.75;;;18.05;;
11016;SDS011;54687;50.800;6.772;2023-04-21T01:07:24;19.42;;;17.63;;
11016;SDS011;54687;50.800;6.772;2023-04-21T01:09:52;22.95;;;20.85;;
11016;SDS011;54687;50.800;6.772;2023-04-21T01:12:18;23.58;;;21.58;;
11016;SDS011;54687;50.800;6.772;2023-04-21T01:14:45;23.55;;;21.52;;
11016;SDS011;54687;50.800;6.772;2023-04-21T01:17:12;21.42;;;19.63;;
11016;SDS011;54687;50.800;6.772;2023-04-21T01:19:46;23.75;;;21.75;;
11016;SDS011;54687;50.800;6.772;2023-04-21T01:22:14;22.05;;;20.05;;
11016;SDS011;54687;50.800;6.772;2023-04-21T01:24:41;23.55;;;21.52;;
11016;SDS011;54687;50.800;6.772;2023-04-21T01:27:09;23.20;;;21.20;;
11016;SDS011;54687;50.800;6.772;2023-04-21T01:29:37;23.13;;;21.05;;
11016;SDS011;54687;50.800;6.772;2023-04-21T01:32:07;23.20;;;21.25;;
11016;SDS011;54687;50.800;6.772;2023-04-21T01:34:36;21.92;;;20.02;;
11016;SDS011;54687;50.800;6.772;2023-04-21T01:37:02;23.10;;;21.00;;
11016;SDS011;54687;50.800;6.772;2023-04-21T01:39:33;23.13;;;21.10;;
11016;SDS011;54687;50.800;6.772;2023-04-21T01:42:03;22.58;;;20.65;;
11016;SDS011;54687;50.800;6.772;2023-04-21T01:44:30;21.08;;;19.17;;
11016;SDS011;54687;50.800;6.772;2023-04-21T01:46:56;25.23;;;22.92;;
11016;SDS011;54687;50.800;6.772;2023-04-21T01:49:23;22.75;;;20.80;;
11016;SDS011;54687;50.800;6.772;2023-04-21T01:51:50;25.20;;;22.85;;
11016;SDS011;54687;50.800;6.772;2023-04-21T01:54:16;22.75;;;20.77;;
11016;SDS011;54687;50.800;6.772;2023-04-21T01:56:44;23.33;;;21.20;;
11016;SDS011;54687;50.800;6.772;2023-04-21T01:59:11;25.20;;;23.10;;
11016;SDS011;54687;50.800;6.772;2023-04-21T02:01:37;26.40;;;24.13;;
11016;SDS011;54687;50.800;6.772;2023-04-21T02:04:04;24.55;;;22.40;;
11016;SDS011;54687;50.800;6.772;2023-04-21T02:06:31;23.73;;;21.73;;
11016;SDS011;54687;50.800;6.772;2023-04-21T02:08:57;26.75;;;24.35;;
11016;SDS011;54687;50.800;6.772;2023-04-21T02:11:24;26.00;;;23.80;;
11016;SDS011;54687;50.800;6.772;2023-04-21T02:13:52;24.95;;;22.85;;
11016;SDS011;54687;50.800;6.772;2023-04-21T02:16:21;24.45;;;22.25;;
11016;SDS011;54687;50.800;6.772;2023-04-21T02:18:50;23.33;;;21.20;;
11016;SDS011;54687;50.800;6.772;2023-04-21T02:21:17;25.67;;;23.27;;
11016;SDS011;54687;50.800;6.772;2023-04-21T02:23:45;23.38;;;21.27;;
11016;SDS011;54687;50.800;6.772;2023-04-21T02:26:12;27.23;;;24.83;;
11016;SDS011;54687;50.800;6.772;2023-04-21T02:28:38;24.58;;;22.38;;
11016;SDS011;54687;50.800;6.772;2023-04-21T02:31:06;25.42;;;23.13;;
11016;SDS011;54687;50.800;6.772;2023-04-21T02:33:33;26.13;;;23.73;;
11016;SDS011;54687;50.800;6.772;2023-04-21T02:36:00;27.40;;;24.90;;
11016;SDS011;54687;50.800;6.772;2023-04-21T02:38:26;26.10;;;23.83;;
11016;SDS011;54687;50.800;6.772;2023-04-21T02:40:53;26.63;;;24.33;;
11016;SDS011;54687;50.800;6.772;2023-04-21T02:43:20;26.08;;;23.80;;
11016;SDS011;54687;50.800;6.772;2023-04-21T02:45:46;24.75;;;22.63;;
11016;SDS011;54687;50.800;6.772;2023-04-21T02:48:14;25.98;;;23.67;;
11016;SDS011;54687;50.800;6.772;2023-04-21T02:50:44;24.95;;;22.83;;
11016;SDS011;54687;50.800;6.772;2023-04-21T02:53:11;24.80;;;22.60;;
11016;SDS011;54687;50.800;6.772;2023-04-21T02:55:37;24.45;;;22.23;;
11016;SDS011;54687;50.800;6.772;2023-04-21T02:58:04;25.50;;;23.20;;
11016;SDS011;54687;50.800;6.772;2023-04-21T03:00:31;23.55;;;21.42;;
11016;SDS011;54687;50.800;6.772;2023-04-21T03:02:59;23.42;;;21.33;;
11016;SDS011;54687;50.800;6.772;2023-04-21T03:05:27;24.42;;;22.23;;
11016;SDS011;54687;50.800;6.772;2023-04-21T03:07:53;24.67;;;22.48;;
11016;SDS011;54687;50.800;6.772;2023-04-21T03:10:20;23.60;;;21.48;;
11016;SDS011;54687;50.800;6.772;2023-04-21T03:12:47;24.75;;;22.55;;
11016;SDS011;54687;50.800;6.772;2023-04-21T03:15:13;22.70;;;20.70;;
11016;SDS011;54687;50.800;6.772;2023-04-21T03:17:41;22.75;;;20.85;;
11016;SDS011;54687;50.800;6.772;2023-04-21T03:20:07;22.83;;;20.83;;
11016;SDS011;54687;50.800;6.772;2023-04-21T03:22:37;23.30;;;21.30;;
11016;SDS011;54687;50.800;6.772;2023-04-21T03:25:04;22.27;;;20.38;;
11016;SDS011;54687;50.800;6.772;2023-04-21T03:27:31;23.88;;;21.77;;
11016;SDS011;54687;50.800;6.772;2023-04-21T03:29:58;24.85;;;22.52;;
11016;SDS011;54687;50.800;6.772;2023-04-21T03:32:25;24.80;;;22.45;;
11016;SDS011;54687;50.800;6.772;2023-04-21T03:34:52;25.48;;;23.17;;
11016;SDS011;54687;50.800;6.772;2023-04-21T03:37:18;25.85;;;23.65;;
11016;SDS011;54687;50.800;6.772;2023-04-21T03:39:46;27.63;;;25.13;;
11016;SDS011;54687;50.800;6.772;2023-04-21T03:42:13;24.55;;;22.35;;
11016;SDS011;54687;50.800;6.772;2023-04-21T03:44:39;24.38;;;22.17;;
11016;SDS011;54687;50.800;6.772;2023-04-21T03:47:06;23.17;;;21.17;;
11016;SDS011;54687;50.800;6.772;2023-04-21T03:49:33;23.75;;;21.65;;
11016;SDS011;54687;50.800;6.772;2023-04-21T03:51:59;26.55;;;24.17;;
11016;SDS011;54687;50.800;6.772;2023-04-21T03:54:26;26.60;;;24.23;;
11016;SDS011;54687;50.800;6.772;2023-04-21T03:56:54;26.27;;;24.05;;
11016;SDS011;54687;50.800;6.772;2023-04-21T03:59:20;27.25;;;24.85;;
11016;SDS011;54687;50.800;6.772;2023-04-21T04:01:47;26.75;;;24.23;;
11016;SDS011;54687;50.800;6.772;2023-04-21T04:04:13;26.10;;;23.77;;
11016;SDS011;54687;50.800;6.772;2023-04-21T04:06:40;26.85;;;24.35;;
11016;SDS011;54687;50.800;6.772;2023-04-21T04:09:07;26.55;;;24.15;;
11016;SDS011;54687;50.800;6.772;2023-04-21T04:11:33;26.90;;;24.42;;
11016;SDS011;54687;50.800;6.772;2023-04-21T04:14:01;27.00;;;24.58;;
11016;SDS011;54687;50.800;6.772;2023-04-21T04:16:28;27.55;;;25.05;;
11016;SDS011;54687;50.800;6.772;2023-04-21T04:18:55;25.67;;;23.48;;
11016;SDS011;54687;50.800;6.772;2023-04-21T04:21:22;29.85;;;27.05;;
11016;SDS011;54687;50.800;6.772;2023-04-21T04:23:49;28.33;;;25.63;;
11016;SDS011;54687;50.800;6.772;2023-04-21T04:26:17;30.02;;;27.30;;
11016;SDS011;54687;50.800;6.772;2023-04-21T04:28:46;31.40;;;28.08;;
11016;SDS011;54687;50.800;6.772;2023-04-21T04:31:14;31.00;;;28.10;;
11016;SDS011;54687;50.800;6.772;2023-04-21T04:33:42;29.58;;;26.88;;
11016;SDS011;54687;50.800;6.772;2023-04-21T04:36:09;28.70;;;26.10;;
11016;SDS011;54687;50.800;6.772;2023-04-21T04:38:37;27.00;;;24.52;;
11016;SDS011;54687;50.800;6.772;2023-04-21T04:41:04;29.50;;;26.70;;
11016;SDS011;54687;50.800;6.772;2023-04-21T04:43:32;29.23;;;26.42;;
11016;SDS011;54687;50.800;6.772;2023-04-21T04:46:01;29.40;;;26.73;;
11016;SDS011;54687;50.800;6.772;2023-04-21T04:48:30;28.63;;;25.92;;
11016;SDS011;54687;50.800;6.772;2023-04-21T04:50:57;26.05;;;23.65;;
11016;SDS011;54687;50.800;6.772;2023-04-21T04:53:24;25.33;;;23.00;;
11016;SDS011;54687;50.800;6.772;2023-04-21T04:55:52;29.48;;;26.70;;
11016;SDS011;54687;50.800;6.772;2023-04-21T04:58:19;29.00;;;26.35;;
11016;SDS011;54687;50.800;6.772;2023-04-21T05:00:46;26.58;;;24.17;;
11016;SDS011;54687;50.800;6.772;2023-04-21T05:03:12;26.83;;;24.52;;
11016;SDS011;54687;50.800;6.772;2023-04-21T05:05:40;26.30;;;23.98;;
11016;SDS011;54687;50.800;6.772;2023-04-21T05:08:07;26.20;;;23.90;;
11016;SDS011;54687;50.800;6.772;2023-04-21T05:10:33;28.08;;;25.58;;
11016;SDS011;54687;50.800;6.772;2023-04-21T05:13:00;26.40;;;23.95;;
11016;SDS011;54687;50.800;6.772;2023-04-21T05:15:27;26.98;;;24.38;;
11016;SDS011;54687;50.800;6.772;2023-04-21T05:17:53;27.70;;;25.20;;
11016;SDS011;54687;50.800;6.772;2023-04-21T05:20:20;27.77;;;25.23;;
11016;SDS011;54687;50.800;6.772;2023-04-21T05:22:48;26.23;;;23.90;;
11016;SDS011;54687;50.800;6.772;2023-04-21T05:25:14;25.52;;;23.33;;
11016;SDS011;54687;50.800;6.772;2023-04-21T05:27:41;25.10;;;22.80;;
11016;SDS011;54687;50.800;6.772;2023-04-21T05:30:08;26.55;;;24.08;;
11016;SDS011;54687;50.800;6.772;2023-04-21T05:32:35;25.20;;;22.90;;
11016;SDS011;54687;50.800;6.772;2023-04-21T05:35:02;27.45;;;24.98;;
11016;SDS011;54687;50.800;6.772;2023-04-21T05:37:29;28.15;;;25.55;;
11016;SDS011;54687;50.800;6.772;2023-04-21T05:39:57;28.00;;;25.50;;
11016;SDS011;54687;50.800;6.772;2023-04-21T05:42:23;24.95;;;22.65;;
11016;SDS011;54687;50.800;6.772;2023-04-21T05:44:50;25.08;;;22.77;;
11016;SDS011;54687;50.800;6.772;2023-04-21T05:47:18;25.92;;;23.55;;
11016;SDS011;54687;50.800;6.772;2023-04-21T05:49:44;25.30;;;23.10;;
11016;SDS011;54687;50.800;6.772;2023-04-21T05:52:14;28.58;;;25.98;;
11016;SDS011;54687;50.800;6.772;2023-04-21T05:54:41;27.38;;;24.88;;
11016;SDS011;54687;50.800;6.772;2023-04-21T05:57:09;27.08;;;24.58;;
11016;SDS011;54687;50.800;6.772;2023-04-21T05:59:36;27.85;;;25.30;;
11016;SDS011;54687;50.800;6.772;2023-04-21T06:02:03;26.58;;;24.10;;
11016;SDS011;54687;50.800;6.772;2023-04-21T06:04:29;26.60;;;24.17;;
11016;SDS011;54687;50.800;6.772;2023-04-21T06:06:56;27.45;;;25.00;;
11016;SDS011;54687;50.800;6.772;2023-04-21T06:09:24;27.42;;;24.98;;
11016;SDS011;54687;50.800;6.772;2023-04-21T06:11:51;28.13;;;25.58;;
11016;SDS011;54687;50.800;6.772;2023-04-21T06:14:19;27.20;;;24.80;;
11016;SDS011;54687;50.800;6.772;2023-04-21T06:16:45;27.65;;;25.15;;
11016;SDS011;54687;50.800;6.772;2023-04-21T06:19:13;26.98;;;24.58;;
11016;SDS011;54687;50.800;6.772;2023-04-21T06:21:39;28.05;;;25.45;;
11016;SDS011;54687;50.800;6.772;2023-04-21T06:24:06;27.90;;;25.30;;
11016;SDS011;54687;50.800;6.772;2023-04-21T06:26:33;28.17;;;25.50;;
11016;SDS011;54687;50.800;6.772;2023-04-21T06:29:01;27.23;;;24.80;;
11016;SDS011;54687;50.800;6.772;2023-04-21T06:31:29;26.73;;;24.23;;
11016;SDS011;54687;50.800;6.772;2023-04-21T06:33:55;27.48;;;24.92;;
11016;SDS011;54687;50.800;6.772;2023-04-21T06:36:22;24.95;;;22.63;;
11016;SDS011;54687;50.800;6.772;2023-04-21T06:38:48;24.67;;;22.17;;
11016;SDS011;54687;50.800;6.772;2023-04-21T06:41:15;25.33;;;22.95;;
11016;SDS011;54687;50.800;6.772;2023-04-21T06:43:43;26.30;;;23.80;;
11016;SDS011;54687;50.800;6.772;2023-04-21T06:46:10;25.05;;;22.85;;
11016;SDS011;54687;50.800;6.772;2023-04-21T06:48:37;23.60;;;21.42;;
11016;SDS011;54687;50.800;6.772;2023-04-21T06:51:04;24.77;;;22.52;;
11016;SDS011;54687;50.800;6.772;2023-04-21T06:53:31;23.50;;;21.50;;
11016;SDS011;54687;50.800;6.772;2023-04-21T06:55:57;22.88;;;20.75;;
11016;SDS011;54687;50.800;6.772;2023-04-21T06:58:25;22.80;;;20.80;;
11016;SDS011;54687;50.800;6.772;2023-04-21T07:00:51;20.90;;;19.08;;
11016;SDS011;54687;50.800;6.772;2023-04-21T07:03:18;19.10;;;17.48;;
11016;SDS011;54687;50.800;6.772;2023-04-21T07:05:46;20.23;;;18.33;;
11016;SDS011;54687;50.800;6.772;2023-04-21T07:08:13;20.50;;;18.70;;
11016;SDS011;54687;50.800;6.772;2023-04-21T07:10:39;18.58;;;16.92;;
11016;SDS011;54687;50.800;6.772;2023-04-21T07:13:06;19.40;;;17.70;;
11016;SDS011;54687;50.800;6.772;2023-04-21T07:15:33;18.02;;;16.42;;
11016;SDS011;54687;50.800;6.772;2023-04-21T07:17:59;17.35;;;15.75;;
11016;SDS011;54687;50.800;6.772;2023-04-21T07:20:26;16.92;;;15.43;;
11016;SDS011;54687;50.800;6.772;2023-04-21T07:22:54;16.67;;;15.27;;
11016;SDS011;54687;50.800;6.772;2023-04-21T07:25:21;16.13;;;14.82;;
11016;SDS011;54687;50.800;6.772;2023-04-21T07:27:47;17.27;;;15.68;;
11016;SDS011;54687;50.800;6.772;2023-04-21T07:30:14;17.33;;;15.82;;
11016;SDS011;54687;50.800;6.772;2023-04-21T07:32:41;17.60;;;15.98;;
11016;SDS011;54687;50.800;6.772;2023-04-21T07:35:07;15.88;;;14.48;;
11016;SDS011;54687;50.800;6.772;2023-04-21T07:37:34;17.70;;;16.20;;
11016;SDS011;54687;50.800;6.772;2023-04-21T07:40:02;16.83;;;15.38;;
11016;SDS011;54687;50.800;6.772;2023-04-21T07:42:30;17.38;;;15.77;;
11016;SDS011;54687;50.800;6.772;2023-04-21T07:44:56;17.45;;;15.73;;
11016;SDS011;54687;50.800;6.772;2023-04-21T07:47:25;15.05;;;13.75;;
11016;SDS011;54687;50.800;6.772;2023-04-21T07:49:51;15.73;;;14.32;;
11016;SDS011;54687;50.800;6.772;2023-04-21T07:52:18;16.10;;;14.73;;
11016;SDS011;54687;50.800;6.772;2023-04-21T07:54:45;15.75;;;14.40;;
11016;SDS011;54687;50.800;6.772;2023-04-21T07:57:13;14.73;;;13.52;;
11016;SDS011;54687;50.800;6.772;2023-04-21T07:59:41;16.08;;;14.70;;
11016;SDS011;54687;50.800;6.772;2023-04-21T08:02:08;15.95;;;14.45;;
11016;SDS011;54687;50.800;6.772;2023-04-21T08:04:35;15.85;;;14.48;;
11016;SDS011;54687;50.800;6.772;2023-04-21T08:07:02;16.25;;;14.85;;
11016;SDS011;54687;50.800;6.772;2023-04-21T08:09:29;14.82;;;13.52;;
11016;SDS011;54687;50.800;6.772;2023-04-21T08:11:56;15.63;;;14.23;;
11016;SDS011;54687;50.800;6.772;2023-04-21T08:14:24;14.32;;;13.13;;
11016;SDS011;54687;50.800;6.772;2023-04-21T08:16:52;14.57;;;13.32;;
11016;SDS011;54687;50.800;6.772;2023-04-21T08:19:19;14.93;;;13.63;;
11016;SDS011;54687;50.800;6.772;2023-04-21T08:21:45;13.88;;;12.68;;
11016;SDS011;54687;50.800;6.772;2023-04-21T08:24:12;14.48;;;13.18;;
11016;SDS011;54687;50.800;6.772;2023-04-21T08:26:38;15.13;;;13.60;;
11016;SDS011;54687;50.800;6.772;2023-04-21T08:29:05;15.23;;;13.82;;
11016;SDS011;54687;50.800;6.772;2023-04-21T08:31:35;14.68;;;13.48;;
11016;SDS011;54687;50.800;6.772;2023-04-21T08:34:02;15.48;;;14.18;;
11016;SDS011;54687;50.800;6.772;2023-04-21T08:36:29;14.82;;;13.57;;
11016;SDS011;54687;50.800;6.772;2023-04-21T08:38:55;15.25;;;13.95;;
11016;SDS011;54687;50.800;6.772;2023-04-21T08:41:23;14.75;;;13.55;;
11016;SDS011;54687;50.800;6.772;2023-04-21T08:43:50;14.43;;;13.23;;
11016;SDS011;54687;50.800;6.772;2023-04-21T08:46:17;14.25;;;13.05;;
11016;SDS011;54687;50.800;6.772;2023-04-21T08:48:46;14.80;;;13.55;;
11016;SDS011;54687;50.800;6.772;2023-04-21T08:51:13;16.40;;;14.25;;
11016;SDS011;54687;50.800;6.772;2023-04-21T08:53:47;15.48;;;13.93;;
11016;SDS011;54687;50.800;6.772;2023-04-21T08:56:13;15.57;;;14.00;;
11016;SDS011;54687;50.800;6.772;2023-04-21T08:58:40;13.57;;;12.25;;
11016;SDS011;54687;50.800;6.772;2023-04-21T09:01:07;13.93;;;12.63;;
11016;SDS011;54687;50.800;6.772;2023-04-21T09:03:33;20.60;;;18.55;;
11016;SDS011;54687;50.800;6.772;2023-04-21T09:06:02;13.90;;;12.60;;
11016;SDS011;54687;50.800;6.772;2023-04-21T09:08:33;12.63;;;11.32;;
11016;SDS011;54687;50.800;6.772;2023-04-21T09:11:02;13.77;;;12.57;;
11016;SDS011;54687;50.800;6.772;2023-04-21T09:13:29;14.07;;;12.88;;
11016;SDS011;54687;50.800;6.772;2023-04-21T09:15:57;12.02;;;10.93;;
11016;SDS011;54687;50.800;6.772;2023-04-21T09:18:26;12.27;;;11.27;;
11016;SDS011;54687;50.800;6.772;2023-04-21T09:21:05;11.73;;;10.63;;
11016;SDS011;54687;50.800;6.772;2023-04-21T09:23:38;12.90;;;11.65;;
11016;SDS011;54687;50.800;6.772;2023-04-21T09:26:06;13.20;;;12.00;;
11016;SDS011;54687;50.800;6.772;2023-04-21T09:28:33;12.32;;;11.10;;
11016;SDS011;54687;50.800;6.772;2023-04-21T09:31:00;11.93;;;10.73;;
11016;SDS011;54687;50.800;6.772;2023-04-21T09:33:26;11.35;;;10.35;;
11016;SDS011;54687;50.800;6.772;2023-04-21T09:35:53;12.27;;;11.27;;
11016;SDS011;54687;50.800;6.772;2023-04-21T09:38:21;11.88;;;10.75;;
11016;SDS011;54687;50.800;6.772;2023-04-21T09:40:55;11.88;;;10.77;;
11016;SDS011;54687;50.800;6.772;2023-04-21T09:43:22;11.57;;;10.48;;
11016;SDS011;54687;50.800;6.772;2023-04-21T09:45:49;12.45;;;11.30;;
11016;SDS011;54687;50.800;6.772;2023-04-21T09:48:16;11.70;;;10.70;;
11016;SDS011;54687;50.800;6.772;2023-04-21T09:50:44;10.73;;;9.77;;
11016;SDS011;54687;50.800;6.772;2023-04-21T09:53:13;10.63;;;9.70;;
11016;SDS011;54687;50.800;6.772;2023-04-21T09:55:43;9.98;;;9.07;;
11016;SDS011;54687;50.800;6.772;2023-04-21T09:58:15;9.85;;;8.95;;
11016;SDS011;54687;50.800;6.772;2023-04-21T10:00:47;10.98;;;9.98;;
11016;SDS011;54687;50.800;6.772;2023-04-21T10:03:15;10.55;;;9.55;;
11016;SDS011;54687;50.800;6.772;2023-04-21T10:05:44;10.32;;;9.43;;
11016;SDS011;54687;50.800;6.772;2023-04-21T10:08:11;9.90;;;9.10;;
11016;SDS011;54687;50.800;6.772;2023-04-21T10:10:38;10.02;;;9.13;;
11016;SDS011;54687;50.800;6.772;2023-04-21T10:13:06;9.23;;;8.43;;
11016;SDS011;54687;50.800;6.772;2023-04-21T10:15:39;8.27;;;7.47;;
11016;SDS011;54687;50.800;6.772;2023-04-21T10:18:14;9.10;;;8.25;;
11016;SDS011;54687;50.800;6.772;2023-04-21T10:20:52;8.95;;;8.02;;
11016;SDS011;54687;50.800;6.772;2023-04-21T10:23:26;8.10;;;7.40;;
11016;SDS011;54687;50.800;6.772;2023-04-21T10:26:05;8.15;;;7.45;;
11016;SDS011;54687;50.800;6.772;2023-04-21T10:28:39;10.05;;;9.15;;
11016;SDS011;54687;50.800;6.772;2023-04-21T10:31:17;9.88;;;8.98;;
11016;SDS011;54687;50.800;6.772;2023-04-21T10:36:59;7.45;;;6.85;;
11016;SDS011;54687;50.800;6.772;2023-04-21T10:39:35;7.78;;;7.07;;
11016;SDS011;54687;50.800;6.772;2023-04-21T10:42:17;7.72;;;7.05;;
11016;SDS011;54687;50.800;6.772;2023-04-21T10:44:51;9.25;;;7.10;;
11016;SDS011;54687;50.800;6.772;2023-04-21T10:47:26;7.75;;;7.05;;
11016;SDS011;54687;50.800;6.772;2023-04-21T10:49:54;7.80;;;7.10;;
11016;SDS011;54687;50.800;6.772;2023-04-21T10:52:21;8.63;;;7.93;;
11016;SDS011;54687;50.800;6.772;2023-04-21T10:55:06;7.93;;;7.22;;
11016;SDS011;54687;50.800;6.772;2023-04-21T10:57:36;7.95;;;7.30;;
11016;SDS011;54687;50.800;6.772;2023-04-21T11:00:10;7.80;;;7.13;;
11016;SDS011;54687;50.800;6.772;2023-04-21T11:02:39;8.18;;;7.47;;
11016;SDS011;54687;50.800;6.772;2023-04-21T11:05:07;8.32;;;7.53;;
11016;SDS011;54687;50.800;6.772;2023-04-21T11:07:34;8.27;;;7.57;;
11016;SDS011;54687;50.800;6.772;2023-04-21T11:10:02;7.97;;;7.30;;
11016;SDS011;54687;50.800;6.772;2023-04-21T11:12:30;8.68;;;7.88;;
11016;SDS011;54687;50.800;6.772;2023-04-21T11:14:58;8.35;;;7.55;;
11016;SDS011;54687;50.800;6.772;2023-04-21T11:17:26;8.05;;;7.35;;
11016;SDS011;54687;50.800;6.772;2023-04-21T11:19:53;7.72;;;7.13;;
11016;SDS011;54687;50.800;6.772;2023-04-21T11:22:23;10.70;;;9.70;;
11016;SDS011;54687;50.800;6.772;2023-04-21T11:24:51;11.10;;;10.13;;
11016;SDS011;54687;50.800;6.772;2023-04-21T11:27:20;9.57;;;8.68;;
11016;SDS011;54687;50.800;6.772;2023-04-21T11:29:48;9.05;;;8.30;;
11016;SDS011;54687;50.800;6.772;2023-04-21T11:32:15;9.50;;;8.52;;
11016;SDS011;54687;50.800;6.772;2023-04-21T11:34:44;8.52;;;7.82;;
11016;SDS011;54687;50.800;6.772;2023-04-21T11:37:13;9.48;;;8.68;;
11016;SDS011;54687;50.800;6.772;2023-04-21T11:39:42;9.55;;;8.75;;
11016;SDS011;54687;50.800;6.772;2023-04-21T11:42:09;8.25;;;7.50;;
11016;SDS011;54687;50.800;6.772;2023-04-21T11:44:37;9.20;;;8.40;;
11016;SDS011;54687;50.800;6.772;2023-04-21T11:47:12;11.27;;;10.18;;
11016;SDS011;54687;50.800;6.772;2023-04-21T11:49:44;11.45;;;10.35;;
11016;SDS011;54687;50.800;6.772;2023-04-21T11:52:19;13.68;;;12.38;;
11016;SDS011;54687;50.800;6.772;2023-04-21T11:54:57;12.05;;;10.77;;
11016;SDS011;54687;50.800;6.772;2023-04-21T11:57:25;13.38;;;12.13;;
11016;SDS011;54687;50.800;6.772;2023-04-21T11:59:52;9.75;;;8.88;;
11016;SDS011;54687;50.800;6.772;2023-04-21T12:02:20;9.63;;;8.75;;
11016;SDS011;54687;50.800;6.772;2023-04-21T12:04:57;12.18;;;11.10;;
11016;SDS011;54687;50.800;6.772;2023-04-21T12:07:28;11.48;;;10.43;;
11016;SDS011;54687;50.800;6.772;2023-04-21T12:09:57;10.13;;;9.32;;
11016;SDS011;54687;50.800;6.772;2023-04-21T12:12:24;11.98;;;10.88;;
11016;SDS011;54687;50.800;6.772;2023-04-21T12:14:50;10.32;;;9.30;;
11016;SDS011;54687;50.800;6.772;2023-04-21T12:17:17;9.93;;;9.02;;
11016;SDS011;54687;50.800;6.772;2023-04-21T12:19:44;8.98;;;8.18;;
11016;SDS011;54687;50.800;6.772;2023-04-21T12:22:13;8.95;;;7.93;;
11016;SDS011;54687;50.800;6.772;2023-04-21T12:24:41;6.85;;;6.15;;
11016;SDS011;54687;50.800;6.772;2023-04-21T12:27:08;6.45;;;5.85;;
11016;SDS011;54687;50.800;6.772;2023-04-21T12:29:36;6.65;;;6.05;;
11016;SDS011;54687;50.800;6.772;2023-04-21T12:32:03;7.32;;;5.72;;
11016;SDS011;54687;50.800;6.772;2023-04-21T12:34:30;7.70;;;7.10;;
11016;SDS011;54687;50.800;6.772;2023-04-21T12:36:58;8.15;;;6.63;;
11016;SDS011;54687;50.800;6.772;2023-04-21T12:39:26;6.88;;;6.10;;
11016;SDS011;54687;50.800;6.772;2023-04-21T12:41:54;6.57;;;5.97;;
11016;SDS011;54687;50.800;6.772;2023-04-21T12:44:21;8.05;;;7.30;;
11016;SDS011;54687;50.800;6.772;2023-04-21T12:46:48;7.22;;;6.53;;
11016;SDS011;54687;50.800;6.772;2023-04-21T12:49:15;6.15;;;5.60;;
11016;SDS011;54687;50.800;6.772;2023-04-21T12:51:41;8.07;;;5.45;;
11016;SDS011;54687;50.800;6.772;2023-04-21T12:54:08;6.30;;;5.70;;
11016;SDS011;54687;50.800;6.772;2023-04-21T12:56:37;5.97;;;5.38;;
11016;SDS011;54687;50.800;6.772;2023-04-21T12:59:04;6.30;;;5.70;;
11016;SDS011;54687;50.800;6.772;2023-04-21T13:01:31;5.60;;;5.13;;
11016;SDS011;54687;50.800;6.772;2023-04-21T13:03:58;5.13;;;4.72;;
11016;SDS011;54687;50.800;6.772;2023-04-21T13:06:25;5.35;;;4.85;;
11016;SDS011;54687;50.800;6.772;2023-04-21T13:08:53;5.72;;;5.22;;
11016;SDS011;54687;50.800;6.772;2023-04-21T13:11:20;6.40;;;5.28;;
11016;SDS011;54687;50.800;6.772;2023-04-21T13:13:47;5.57;;;5.18;;
11016;SDS011;54687;50.800;6.772;2023-04-21T13:16:14;5.75;;;5.25;;
11016;SDS011;54687;50.800;6.772;2023-04-21T13:18:41;6.10;;;5.57;;
11016;SDS011;54687;50.800;6.772;2023-04-21T13:21:08;5.50;;;5.10;;
11016;SDS011;54687;50.800;6.772;2023-04-21T13:23:34;6.35;;;4.95;;
11016;SDS011;54687;50.800;6.772;2023-04-21T13:26:02;5.45;;;4.95;;
11016;SDS011;54687;50.800;6.772;2023-04-21T13:28:29;9.45;;;5.00;;
11016;SDS011;54687;50.800;6.772;2023-04-21T13:30:57;5.78;;;5.25;;
11016;SDS011;54687;50.800;6.772;2023-04-21T13:33:23;4.97;;;4.57;;
11016;SDS011;54687;50.800;6.772;2023-04-21T13:35:50;5.10;;;4.63;;
11016;SDS011;54687;50.800;6.772;2023-04-21T13:38:17;5.00;;;4.50;;
11016;SDS011;54687;50.800;6.772;2023-04-21T13:40:44;4.15;;;3.85;;
11016;SDS011;54687;50.800;6.772;2023-04-21T13:43:13;4.00;;;3.67;;
11016;SDS011;54687;50.800;6.772;2023-04-21T13:45:39;3.92;;;3.63;;
11016;SDS011;54687;50.800;6.772;2023-04-21T13:48:07;3.90;;;3.60;;
11016;SDS011;54687;50.800;6.772;2023-04-21T13:50:35;4.80;;;3.70;;
11016;SDS011;54687;50.800;6.772;2023-04-21T13:53:01;5.55;;;3.95;;
11016;SDS011;54687;50.800;6.772;2023-04-21T13:55:28;3.80;;;3.50;;
11016;SDS011;54687;50.800;6.772;2023-04-21T13:57:54;3.60;;;3.15;;
11016;SDS011;54687;50.800;6.772;2023-04-21T14:00:21;4.20;;;3.90;;
11016;SDS011;54687;50.800;6.772;2023-04-21T14:02:48;3.97;;;3.67;;
11016;SDS011;54687;50.800;6.772;2023-04-21T14:05:16;5.03;;;4.53;;
11016;SDS011;54687;50.800;6.772;2023-04-21T14:07:42;3.75;;;3.45;;
11016;SDS011;54687;50.800;6.772;2023-04-21T14:10:10;3.90;;;3.60;;
11016;SDS011;54687;50.800;6.772;2023-04-21T14:12:37;3.92;;;3.63;;
11016;SDS011;54687;50.800;6.772;2023-04-21T14:15:04;5.45;;;4.25;;
11016;SDS011;54687;50.800;6.772;2023-04-21T14:17:31;4.30;;;4.00;;
11016;SDS011;54687;50.800;6.772;2023-04-21T14:19:58;4.05;;;3.30;;
11016;SDS011;54687;50.800;6.772;2023-04-21T14:22:26;4.00;;;3.70;;
11016;SDS011;54687;50.800;6.772;2023-04-21T14:24:53;3.95;;;3.65;;
11016;SDS011;54687;50.800;6.772;2023-04-21T14:27:19;5.03;;;4.15;;
11016;SDS011;54687;50.800;6.772;2023-04-21T14:29:46;5.70;;;4.13;;
11016;SDS011;54687;50.800;6.772;2023-04-21T14:32:13;4.85;;;3.90;;
11016;SDS011;54687;50.800;6.772;2023-04-21T14:34:39;5.78;;;3.75;;